Suvarnabhumi Airport
VTBS : now visible

Airfield :











YOU CAN JOIN US ON...

 
LOGIN :

Register | Disclaimer

   EN    FR    IT 

 









Legend :    VFR   Marginal VFR   IFR   Intensive IFR   Very Intensive IFR
Visi :
Ceiling :
>= 8 km
>= 3000ft
5 to 8 km
1000 to 3000 ft
1500m to 5 km
500 to 1000 ft
800 to 1500m
200 to 500 ft
< 800m
< 200 ft
Symbols :   Thunderstorms  Fog  Heavy snow  Heavy precipitations  Wind > 20 kt






- Airport Elevation : 5 ft
- IATA code : BKK


VTBS - Suvarnabhumi

CURRENT METAR :
  • 020530Z 17008KT 120V210 9999 FEW020 SCT035 33/23 Q1012 NOSIG

EXPIRED METARs :
  • 020500Z 19009KT 160V230 9999 FEW020CB SCT035 33/23 Q1012 NOSIG
  • 020430Z 21008KT 9999 FEW020 SCT035 33/23 Q1013 NOSIG
  • 012100Z 17007KT 9999 FEW018 SCT040 29/24 Q1010 NOSIG
  • 020400Z VRB06KT 9999 FEW020 SCT035 32/23 Q1013 NOSIG
  • 020330Z 18007KT 9999 FEW020CB SCT035 32/23 Q1013 NOSIG
  • 020300Z 20007KT 150V210 9999 FEW020 SCT035 32/23 Q1013 NOSIG
  • 020230Z 17006KT 140V220 9999 FEW020 32/23 Q1013 NOSIG
  • 020200Z 19008KT 160V230 9999 FEW020 31/23 Q1013 NOSIG
  • 020130Z 19008KT 9999 FEW020 30/24 Q1013 NOSIG
  • 020100Z 19006KT 150V210 9999 -RA FEW020 SCT040 30/24 Q1012 NOSIG

TAF TAF VTBS
Valid from the 02 at 00:00 until the 03 at 06:00 UTC


012300Z 0200/0306 19008KT 9000 FEW020 SCT080
TEMPO 0200/0203 VRB15KT 5000 TSRA FEW018CB SCT035
TEMPO 0207/0211 VRB20KT 4000 TSRA FEW018CB SCT030
VTBB FIR / Asia



MET'MAP, your aeronautical weather chart ! - Copyright ORBIFLY December 2007 - Disclaimer

ORBIFLY MET'MAP TEAM :

Programming & Development : Alexandra Zaïnal
Original concept : Baudouin d'Aumeries
Technical & hardware support : Manuel Goepfert
Assistance : Marc-Olivier Méhu




SOURCES & CREDITS :

   NOAA       Earth
Advisory